^^
Cohasset Weather Station Historical Data
 
Daily Summary for December 16, 2018 Units:  English    Metric   Both
Daily Weekly Monthly Yearly Custom
  Current: High: Low: Average:
Temperature: 46.8 °F 46.9 °F 39.9 °F 44.2 °F
Dew Point: 45.2 °F 45.3 °F 36.1 °F 39.9 °F
Humidity: 94% 94% 67% 85%
Wind Speed: 3.5mph 9.2mph 0mph 4mph
Wind Gust: 1.2mph 8.4mph - -
WindSE - - SSE
Pressure: 30.01 in 30.09 in 29.98 in -
Precipitation: 2.501 in      
Historical Graphs
 
 
Tabular Data for December 16, 2018
Time Temperature Dew Point Pressure Wind Wind Speed Wind Gust Humidity Rainfall Rate (Hourly) solar
00:04 45.3 °F 38.8 °F 30.08 in ESE 3.5 mph 3.4 mph 78% 0 in WeatherDisplay:10.37 W/m2
00:09 45 °F 39.5 °F 30.08 in ESE 2.3 mph 0.3 mph 81% 0 in WeatherDisplay:10.37 W/m2
00:14 45 °F 39.2 °F 30.08 in SSE 3.5 mph   80% 0 in WeatherDisplay:10.37 W/m2
00:19 44.6 °F 38.8 °F 30.09 in South 3.5 mph 2.4 mph 80% 0 in WeatherDisplay:10.37 W/m2
00:24 44.4 °F 38.6 °F 30.09 in SSE 4.6 mph 3.7 mph 80% 0 in WeatherDisplay:10.37 W/m2
00:29 44.4 °F 38.6 °F 30.09 in ESE 4.2 mph 2.3 mph 80% 0 in WeatherDisplay:10.37 W/m2
00:34 44.4 °F 38.9 °F 30.09 in SE 4.8 mph 2.6 mph 81% 0 in WeatherDisplay:10.37 W/m2
00:39 44.1 °F 39 °F 30.08 in SSW 5.8 mph 5 mph 82% 0 in WeatherDisplay:10.37 W/m2
00:44 44.2 °F 38.7 °F 30.08 in ESE 2.8 mph 2.6 mph 81% 0 in WeatherDisplay:10.37 W/m2
00:49 44.2 °F 38.7 °F 30.08 in SSE 6.2 mph 5.3 mph 81% 0 in WeatherDisplay:10.37 W/m2
00:54 44.1 °F 38.6 °F 30.09 in SW 4.2 mph 3.4 mph 81% 0 in WeatherDisplay:10.37 W/m2
00:59 44.2 °F 39.1 °F 30.09 in SE 3.5 mph 3.7 mph 82% 0 in WeatherDisplay:10.37 W/m2
01:04 44.1 °F 39.3 °F 30.09 in SE 3.5 mph 3.4 mph 83% 0 in WeatherDisplay:10.37 W/m2
01:09 44.1 °F 39 °F 30.09 in SSE 3.5 mph 4.2 mph 82% 0 in WeatherDisplay:10.37 W/m2
01:14 44.1 °F 39.3 °F 30.09 in Calm     83% 0 in WeatherDisplay:10.37 W/m2
01:19 43.9 °F 39.1 °F 30.09 in SE 3.5 mph 3.5 mph 83% 0 in WeatherDisplay:10.37 W/m2
01:24 43.7 °F 39.2 °F 30.09 in SE 4.6 mph 1.7 mph 84% 0 in WeatherDisplay:10.37 W/m2
01:29 43.3 °F 39.1 °F 30.09 in SSE 2.3 mph   85% 0 in WeatherDisplay:10.37 W/m2
01:34 43 °F 39.1 °F 30.09 in ESE 3.5 mph 3.5 mph 86% 0 in WeatherDisplay:10.37 W/m2
01:39 43 °F 39.1 °F 30.09 in SSE 3.5 mph 3.8 mph 86% 0 in WeatherDisplay:10.37 W/m2
01:44 43 °F 38.8 °F 30.09 in South 4.6 mph 3.7 mph 85% 0 in WeatherDisplay:10.37 W/m2
01:49 42.8 °F 38.9 °F 30.09 in SE 3.5 mph 4.1 mph 86% 0 in WeatherDisplay:10.37 W/m2
01:54 42.8 °F 38.9 °F 30.09 in ESE 2.8 mph 1.6 mph 86% 0 in WeatherDisplay:10.37 W/m2
01:59 42.8 °F 38.6 °F 30.09 in SSE 3.5 mph 3.8 mph 85% 0 in WeatherDisplay:10.37 W/m2
02:04 43 °F 38.8 °F 30.09 in ESE 3.5 mph 3.5 mph 85% 0 in WeatherDisplay:10.37 W/m2
02:09 43.3 °F 38.8 °F 30.09 in SE 3.5 mph 2.3 mph 84% 0 in WeatherDisplay:10.37 W/m2
02:14 43.3 °F 38.8 °F 30.09 in SE 2.3 mph 2.5 mph 84% 0 in WeatherDisplay:10.37 W/m2
02:19 43.3 °F 38.8 °F 30.09 in SE 3.5 mph 2.9 mph 84% 0 in WeatherDisplay:10.37 W/m2
02:24 43.5 °F 39 °F 30.09 in SSE 3.5 mph 3.5 mph 84% 0 in WeatherDisplay:10.37 W/m2
02:29 43.3 °F 38.8 °F 30.09 in Calm     84% 0 in WeatherDisplay:10.37 W/m2
02:34 43.3 °F 39.4 °F 30.09 in Calm     86% 0 in WeatherDisplay:10.37 W/m2
02:39 43.5 °F 38.7 °F 30.09 in SE 3.5 mph 3.1 mph 83% 0 in WeatherDisplay:10.37 W/m2
02:44 43.5 °F 38.7 °F 30.09 in SE 3.5 mph 1.9 mph 83% 0 in WeatherDisplay:10.37 W/m2
02:49 43.9 °F 38.8 °F 30.09 in SSE 4.6 mph 4.5 mph 82% 0 in WeatherDisplay:10.37 W/m2
02:54 44.2 °F 38.7 °F 30.09 in ESE 3.5 mph 4.5 mph 81% 0 in WeatherDisplay:10.37 W/m2
02:59 44.2 °F 38.7 °F 30.09 in ESE 3.5 mph 4.5 mph 81% 0 in WeatherDisplay:10.37 W/m2
03:04 44.8 °F 38.7 °F 30.08 in ESE 3.5 mph 4 mph 79% 0 in WeatherDisplay:10.37 W/m2
03:09 45 °F 39.2 °F 30.08 in SSE 2.8 mph 1.7 mph 80% 0 in WeatherDisplay:10.37 W/m2
03:14 44.8 °F 39.6 °F 30.08 in SSE 2.8 mph 3.7 mph 82% 0 in WeatherDisplay:10.37 W/m2
03:19 44.8 °F 39.6 °F 30.08 in SSE 2.8 mph 3.7 mph 82% 0 in WeatherDisplay:10.37 W/m2
03:24 45 °F 39.2 °F 30.08 in SE 4.2 mph 3.3 mph 80% 0 in WeatherDisplay:10.37 W/m2
03:29 45.3 °F 39.5 °F 30.08 in SE 5.5 mph 2.7 mph 80% 0 in WeatherDisplay:10.37 W/m2
03:34 45.3 °F 40.1 °F 30.08 in SE 3.5 mph 3.4 mph 82% 0 in WeatherDisplay:10.37 W/m2
03:39 45.3 °F 39.2 °F 30.07 in South 4.6 mph 3.1 mph 79% 0 in WeatherDisplay:10.37 W/m2
03:44 45.5 °F 39.7 °F 30.07 in WNW 4.6 mph 3.4 mph 80% 0 in WeatherDisplay:10.37 W/m2
03:49 45.7 °F 39.6 °F 30.07 in ESE 6.2 mph 4.8 mph 79% 0 in WeatherDisplay:10.37 W/m2
03:54 45.9 °F 39.8 °F 30.06 in SE 3.5 mph 3.6 mph 79% 0 in WeatherDisplay:10.37 W/m2
03:59 45.9 °F 39.8 °F 30.06 in SE 4.8 mph 3.2 mph 79% 0 in WeatherDisplay:10.37 W/m2
04:04 46 °F 40.2 °F 30.06 in SSE 5.8 mph 5.4 mph 80% 0 in WeatherDisplay:10.37 W/m2
04:09 46 °F 40.2 °F 30.06 in South 4.6 mph 5.3 mph 80% 0 in WeatherDisplay:10.37 W/m2
04:14 46.2 °F 40 °F 30.05 in ESE 5.8 mph 6 mph 79% 0 in WeatherDisplay:10.37 W/m2
04:19 46 °F 40.2 °F 30.05 in South 4.8 mph 4.7 mph 80% 0 in WeatherDisplay:10.37 W/m2
04:24 46 °F 39.9 °F 30.05 in SE 4.2 mph 4.2 mph 79% 0 in WeatherDisplay:10.37 W/m2
04:29 46.4 °F 39.9 °F 30.04 in SSW 4.6 mph 3.6 mph 78% 0 in WeatherDisplay:10.37 W/m2
04:34 46.2 °F 40.4 °F 30.04 in SSE 4.6 mph 0.5 mph 80% 0 in WeatherDisplay:10.37 W/m2
04:39 46 °F 40.8 °F 30.05 in SSE 3.5 mph 0.4 mph 82% 0 in WeatherDisplay:10.37 W/m2
04:44 45.9 °F 40.7 °F 30.05 in SSE 2.8 mph 1.5 mph 82% 0 in WeatherDisplay:10.37 W/m2
04:49 46.2 °F 40.4 °F 30.05 in SE 4.2 mph 4 mph 80% 0 in WeatherDisplay:10.37 W/m2
04:54 46.4 °F 40.9 °F 30.04 in ESE 3.5 mph   81% 0 in WeatherDisplay:10.37 W/m2
04:59 46.4 °F 40.9 °F 30.04 in SE 2.8 mph   81% 0 in WeatherDisplay:10.37 W/m2
05:04 46.4 °F 40.2 °F 30.05 in South 4.6 mph 4.8 mph 79% 0 in WeatherDisplay:10.37 W/m2
05:09 46.6 °F 41.4 °F 30.05 in South 3.5 mph 1.5 mph 82% 0 in WeatherDisplay:10.37 W/m2
05:14 46.4 °F 40.6 °F 30.05 in SSE 4.6 mph 1.9 mph 80% 0 in WeatherDisplay:10.37 W/m2
05:19 46.2 °F 41.3 °F 30.06 in Calm     83% 0 in WeatherDisplay:10.37 W/m2
05:24 46.2 °F 40.7 °F 30.06 in South 2.3 mph 2.2 mph 81% 0 in WeatherDisplay:10.37 W/m2
05:29 46.2 °F 40.4 °F 30.06 in Calm     80% 0 in WeatherDisplay:10.37 W/m2
05:34 46.2 °F 40.7 °F 30.06 in Calm     81% 0 in WeatherDisplay:10.37 W/m2
05:39 46 °F 39.9 °F 30.07 in ESE 3.5 mph 2.4 mph 79% 0 in WeatherDisplay:10.37 W/m2
05:44 46 °F 41.4 °F 30.07 in Calm     84% 0 in WeatherDisplay:10.37 W/m2
05:49 45.9 °F 40.4 °F 30.07 in Calm     81% 0 in WeatherDisplay:10.37 W/m2
05:54 45.7 °F 38.9 °F 30.07 in Calm     77% 0 in WeatherDisplay:10.37 W/m2
05:59 45.7 °F 40.5 °F 30.07 in Calm     82% 0 in WeatherDisplay:10.37 W/m2
06:04 45.7 °F 38.9 °F 30.07 in Calm     77% 0 in WeatherDisplay:10.37 W/m2
06:09 45.5 °F 40.3 °F 30.07 in Calm     82% 0 in WeatherDisplay:10.37 W/m2
06:14 45.1 °F 38.6 °F 30.07 in ESE 1.2 mph   78% 0 in WeatherDisplay:10.37 W/m2
06:19 45.1 °F 38 °F 30.06 in SSE 3.5 mph 1.1 mph 76% 0 in WeatherDisplay:10.37 W/m2
06:24 45.1 °F 38 °F 30.06 in ESE 2.8 mph 1.4 mph 76% 0 in WeatherDisplay:10.37 W/m2
06:29 45.1 °F 37.6 °F 30.06 in South 3.5 mph 1.8 mph 75% 0 in WeatherDisplay:10.37 W/m2
06:34 45.3 °F 37.8 °F 30.06 in ENE 3.5 mph 3.5 mph 75% 0 in WeatherDisplay:10.37 W/m2
06:39 45.3 °F 37.2 °F 30.05 in SSE 5.8 mph 4.2 mph 73% 0 in WeatherDisplay:10.37 W/m2
06:44 45.5 °F 36.6 °F 30.05 in SSE 5.5 mph 5.8 mph 71% 0 in WeatherDisplay:10.37 W/m2
06:49 45.9 °F 37 °F 30.05 in SSW 4.6 mph 1.8 mph 71% 0 in WeatherDisplay:10.37 W/m2
06:54 45.7 °F 37.5 °F 30.05 in ESE 6.2 mph 5.2 mph 73% 0 in WeatherDisplay:10.37 W/m2
06:59 45.7 °F 37.9 °F 30.05 in ESE 3.5 mph 2.9 mph 74% 0 in WeatherDisplay:10.37 W/m2
07:04 45.7 °F 36.8 °F 30.05 in SSE 4.8 mph 4.4 mph 71% 0 in WeatherDisplay:10.37 W/m2
07:09 46 °F 36.8 °F 30.05 in SSE 3.5 mph 2.4 mph 70% 0 in WeatherDisplay:10.37 W/m2
07:14 46 °F 37.5 °F 30.05 in ESE 4.6 mph 3.8 mph 72% 0 in WeatherDisplay:10.37 W/m2
07:19 46 °F 37.1 °F 30.04 in South 3.5 mph 2.7 mph 71% 0 in WeatherDisplay:10.37 W/m2
07:24 45.9 °F 38.1 °F 30.04 in South 5.5 mph 5 mph 74% 0 in WeatherDisplay:10.37 W/m2
07:29 46 °F 37.1 °F 30.04 in SE 4.8 mph 5.3 mph 71% 0 in WeatherDisplay:10.37 W/m2
07:34 46.2 °F 38.4 °F 30.04 in SSW 5.5 mph 6.1 mph 74% 0 in WeatherDisplay:10.37 W/m2
07:39 46.2 °F 38 °F 30.04 in SSE 3.5 mph 3.3 mph 73% 0 in WeatherDisplay:10.37 W/m2
07:44 46.4 °F 37.1 °F 30.04 in ESE 3.5 mph   70% 0 in WeatherDisplay:10.37 W/m2
07:49 46.2 °F 37 °F 30.04 in SE 4.6 mph 2.1 mph 70% 0 in WeatherDisplay:10.37 W/m2
07:54 46.4 °F 36.4 °F 30.03 in SSE 4.6 mph 4.5 mph 68% 0 in WeatherDisplay:10.37 W/m2
07:59 46.6 °F 37.7 °F 30.03 in South 5.8 mph 4.9 mph 71% 0 in WeatherDisplay:10.37 W/m2
08:04 46.4 °F 36.8 °F 30.04 in SE 3.5 mph 2.6 mph 69% 0 in WeatherDisplay:10.37 W/m2
08:09 46.4 °F 36.4 °F 30.04 in SSE 3.5 mph 2.6 mph 68% 0 in WeatherDisplay:10.37 W/m2
08:14 46.6 °F 36.2 °F 30.04 in SSE 4.6 mph 4.5 mph 67% 0 in WeatherDisplay:10.37 W/m2
08:19 46.6 °F 36.6 °F 30.04 in ESE 3.5 mph 4 mph 68% 0 in WeatherDisplay:10.37 W/m2
08:24 46.2 °F 38.7 °F 30.04 in SSE 4.6 mph 4.2 mph 75% 0 in WeatherDisplay:10.37 W/m2
08:29 45.3 °F 39.5 °F 30.04 in Calm     80% 0 in WeatherDisplay:10.37 W/m2
08:34 45 °F 39.2 °F 30.04 in SE 3.5 mph 2.5 mph 80% 0 in WeatherDisplay:10.37 W/m2
08:39 44.6 °F 38.8 °F 30.04 in ESE 4.8 mph 1 mph 80% 0 in WeatherDisplay:10.37 W/m2
08:44 44.8 °F 37.7 °F 30.04 in South 3.5 mph 4 mph 76% 0 in WeatherDisplay:10.37 W/m2
08:49 44.8 °F 38.4 °F 30.04 in South 2.3 mph 0.2 mph 78% 0 in WeatherDisplay:10.37 W/m2
08:54 45 °F 38.2 °F 30.05 in SE 4.2 mph 4 mph 77% 0 in WeatherDisplay:10.37 W/m2
08:59 45.3 °F 36.1 °F 30.05 in South 3.5 mph 3.2 mph 70% 0 in WeatherDisplay:10.37 W/m2
09:04 45.7 °F 36.5 °F 30.05 in SSE 3.5 mph 2.1 mph 70% 0 in WeatherDisplay:10.37 W/m2
09:09 45.3 °F 38.2 °F 30.05 in SE 5.8 mph 1.5 mph 76% 0 in WeatherDisplay:10.37 W/m2
09:14 43.9 °F 38.8 °F 30.06 in SSE 4.8 mph 4.8 mph 82% 0.009 in WeatherDisplay:10.37 W/m2
09:19 43.3 °F 38.8 °F 30.06 in East 4.6 mph 2.4 mph 84% 0.018 in WeatherDisplay:10.37 W/m2
09:24 43 °F 38.8 °F 30.06 in SE 4.6 mph 3.7 mph 85% 0.018 in WeatherDisplay:10.37 W/m2
09:29 43 °F 37.9 °F 30.06 in SE 4.6 mph 3.5 mph 82% 0.018 in WeatherDisplay:10.37 W/m2
09:34 42.8 °F 38 °F 30.06 in Calm     83% 0.018 in WeatherDisplay:10.37 W/m2
09:39 43 °F 37.9 °F 30.07 in SSE 4.8 mph 3.3 mph 82% 0.018 in WeatherDisplay:10.37 W/m2
09:44 43.2 °F 38.4 °F 30.07 in Calm     83% 0.018 in WeatherDisplay:10.37 W/m2
09:49 43 °F 38.2 °F 30.07 in SSE 3.5 mph 2.2 mph 83% 0.018 in WeatherDisplay:10.37 W/m2
09:54 42.8 °F 37.7 °F 30.06 in SE 3.5 mph 2.9 mph 82% 0.018 in WeatherDisplay:10.37 W/m2
09:59 42.8 °F 37.7 °F 30.06 in SSE 3.5 mph 3.4 mph 82% 0.018 in WeatherDisplay:10.37 W/m2
10:04 42.8 °F 37.7 °F 30.06 in SE 3.5 mph 3.9 mph 82% 0.018 in WeatherDisplay:10.37 W/m2
10:09 42.4 °F 37.9 °F 30.06 in SE 4.2 mph 4.5 mph 84% 0.027 in WeatherDisplay:10.37 W/m2
10:14 42.3 °F 37.2 °F 30.06 in ESE 5.8 mph 4.6 mph 82% 0.027 in WeatherDisplay:10.37 W/m2
10:19 42.4 °F 37.3 °F 30.04 in SSE 5.8 mph 6.1 mph 82% 0.018 in WeatherDisplay:10.37 W/m2
10:24 42.4 °F 37.3 °F 30.04 in ESE 5.8 mph 4.7 mph 82% 0.018 in WeatherDisplay:10.37 W/m2
10:29 42.4 °F 37.9 °F 30.02 in SE 4.6 mph 5 mph 84% 0.018 in WeatherDisplay:10.37 W/m2
10:34 42.6 °F 37.5 °F 30.02 in SSE 4.8 mph 4.8 mph 82% 0.018 in WeatherDisplay:10.37 W/m2
10:39 42.6 °F 37.5 °F 30.02 in ESE 4.6 mph 5 mph 82% 0.018 in WeatherDisplay:10.37 W/m2
10:44 43 °F 37.9 °F 30.02 in SSW 6.2 mph 5.8 mph 82% 0.018 in WeatherDisplay:10.37 W/m2
10:49 43.3 °F 38.2 °F 30.02 in SSE 3.5 mph 2.9 mph 82% 0.018 in WeatherDisplay:10.37 W/m2
10:54 43.9 °F 38.8 °F 30.02 in East 4.8 mph 5.2 mph 82% 0.018 in WeatherDisplay:10.37 W/m2
10:59 44.1 °F 39.9 °F 30.02 in South 5.8 mph 5.2 mph 85% 0.018 in WeatherDisplay:10.37 W/m2
11:04 44.1 °F 39.9 °F 30.03 in SSE 4.8 mph 4.1 mph 85% 0.027 in WeatherDisplay:10.37 W/m2
11:09 44.1 °F 40.2 °F 30.03 in SSE 5.8 mph 5.9 mph 86% 0.018 in WeatherDisplay:10.37 W/m2
11:12 44.4 °F 40.2 °F 30.03 in SSW 3.5 mph 0.2 mph 85% 0.018 in WeatherDisplay:10.37 W/m2
11:19 44.8 °F 40.6 °F 30.02 in SSE 2.8 mph 1.8 mph 85% 0.007 in WeatherDisplay:10.37 W/m2
11:24 45 °F 40.5 °F 30.02 in SSE 3.5 mph 3.4 mph 84% 0.016 in WeatherDisplay:10.37 W/m2
11:29 45 °F 40.8 °F 30.03 in SSE 4.6 mph 3.2 mph 85% 0.016 in WeatherDisplay:10.37 W/m2
11:34 45 °F 40.8 °F 30.03 in ESE 1.2 mph   85% 0.016 in WeatherDisplay:10.37 W/m2
11:39 45 °F 41.4 °F 30.02 in ESE 4.6 mph 1.1 mph 87% 0.016 in WeatherDisplay:10.37 W/m2
11:44 44.8 °F 41.2 °F 30.02 in SSW 3.5 mph 1.8 mph 87% 0.025 in WeatherDisplay:10.37 W/m2
11:49 44.6 °F 41.3 °F 30.02 in Calm     88% 0.034 in WeatherDisplay:10.37 W/m2
11:54 44.4 °F 41.1 °F 30.03 in SSW 2.8 mph 1.2 mph 88% 0.034 in WeatherDisplay:10.37 W/m2
11:59 44.4 °F 41.4 °F 30.03 in South 2.8 mph 2.8 mph 89% 0.052 in WeatherDisplay:10.37 W/m2
12:04 44.2 °F 41.2 °F 30.03 in SSE 4.6 mph 3.6 mph 89% 0.07 in WeatherDisplay:10.37 W/m2
12:09 44.1 °F 41.4 °F 30.03 in South 3.5 mph   90% 0.079 in WeatherDisplay:10.37 W/m2
12:14 43.9 °F 41.2 °F 30.02 in SSE 4.6 mph 3.5 mph 90% 0.097 in WeatherDisplay:10.37 W/m2
12:19 43.7 °F 41 °F 30.02 in SSE 3.5 mph 4.2 mph 90% 0.117 in WeatherDisplay:10.37 W/m2
12:24 43.5 °F 40.8 °F 30.02 in SSW 4.6 mph 4.2 mph 90% 0.108 in WeatherDisplay:10.37 W/m2
12:29 43.3 °F 40.6 °F 30.01 in SE 5.8 mph 5.5 mph 90% 0.126 in WeatherDisplay:10.37 W/m2
12:34 43.2 °F 40.5 °F 30.01 in SE 3.5 mph 4 mph 90% 0.126 in WeatherDisplay:10.37 W/m2
12:39 43 °F 40.3 °F 30.01 in SSE 4.6 mph 2.7 mph 90% 0.144 in WeatherDisplay:10.37 W/m2
12:44 42.8 °F 40.1 °F 30.01 in SSE 4.6 mph 2.2 mph 90% 0.144 in WeatherDisplay:10.37 W/m2
12:49 42.8 °F 40.1 °F 30.01 in SSE 4.2 mph 1.8 mph 90% 0.144 in WeatherDisplay:10.37 W/m2
12:54 42.6 °F 39.9 °F 30.01 in South 2.3 mph 1.9 mph 90% 0.153 in WeatherDisplay:10.37 W/m2
12:59 42.4 °F 39.7 °F 30.01 in SE 3.5 mph 4.2 mph 90% 0.144 in WeatherDisplay:10.37 W/m2
13:04 42.3 °F 39.6 °F 30.01 in South 4.2 mph 1.7 mph 90% 0.144 in WeatherDisplay:10.37 W/m2
13:09 42.1 °F 39.4 °F 30.01 in SSE 4.6 mph 4 mph 90% 0.144 in WeatherDisplay:10.37 W/m2
13:14 41.9 °F 39.2 °F 30.01 in SE 5.8 mph 4.8 mph 90% 0.153 in WeatherDisplay:10.37 W/m2
13:19 41.7 °F 39 °F 30.01 in South 8.1 mph 5.5 mph 90% 0.162 in WeatherDisplay:10.37 W/m2
13:24 41.5 °F 38.8 °F 30.01 in ESE 4.8 mph 5.5 mph 90% 0.18 in WeatherDisplay:10.37 W/m2
13:29 41.4 °F 39 °F 30.00 in SE 5.8 mph 5.4 mph 91% 0.18 in WeatherDisplay:10.37 W/m2
13:34 41.2 °F 38.8 °F 30.00 in SSE 8.2 mph 7.1 mph 91% 0.198 in WeatherDisplay:10.37 W/m2
13:39 41.2 °F 38.8 °F 30.00 in SSE 4.6 mph 4.5 mph 91% 0.198 in WeatherDisplay:10.37 W/m2
13:44 40.8 °F 38.4 °F 30.00 in ESE 6.9 mph 6.1 mph 91% 0.225 in WeatherDisplay:10.37 W/m2
13:48 40.6 °F 38.2 °F 30.00 in SSE 8.2 mph 8.4 mph 91% 0.261 in WeatherDisplay:10.37 W/m2
13:54 40.5 °F 38.1 °F 30.00 in SE 6.2 mph 5.4 mph 91% 0.351 in WeatherDisplay:10.37 W/m2
13:59 40.3 °F 37.9 °F 30.00 in SSE 4.8 mph 4.6 mph 91% 0.36 in WeatherDisplay:10.37 W/m2
14:04 40.3 °F 37.9 °F 29.98 in ESE 4.6 mph 3.7 mph 91% 0.369 in WeatherDisplay:10.37 W/m2
14:09 40.1 °F 37.7 °F 29.98 in SE 4.6 mph 4.3 mph 91% 0.387 in WeatherDisplay:10.37 W/m2
14:14 40.1 °F 37.7 °F 29.98 in SSE 4.8 mph 6 mph 91% 0.414 in WeatherDisplay:10.37 W/m2
14:19 40.1 °F 37.7 °F 29.98 in SSE 4.6 mph 5.4 mph 91% 0.423 in WeatherDisplay:10.37 W/m2
14:24 39.9 °F 37.8 °F 29.98 in SSE 5.8 mph 4.8 mph 92% 0.441 in WeatherDisplay:10.37 W/m2
14:29 39.9 °F 37.8 °F 29.98 in SSE 4.6 mph 0.6 mph 92% 0.441 in WeatherDisplay:10.37 W/m2
14:34 39.9 °F 37.8 °F 29.98 in SSE 4.6 mph 5.1 mph 92% 0.468 in WeatherDisplay:10.37 W/m2
14:39 39.9 °F 37.8 °F 29.99 in South 4.8 mph 5 mph 92% 0.549 in WeatherDisplay:10.37 W/m2
14:44 39.9 °F 37.8 °F 29.99 in SE 4.8 mph 5.5 mph 92% 0.612 in WeatherDisplay:10.37 W/m2
14:49 40.1 °F 38 °F 29.99 in SE 6.2 mph 6.5 mph 92% 0.639 in WeatherDisplay:10.37 W/m2
14:54 40.1 °F 38 °F 29.99 in ESE 3.5 mph 3.9 mph 92% 0.63 in WeatherDisplay:10.37 W/m2
14:59 40.3 °F 38.2 °F 29.99 in SE 3.5 mph 3.5 mph 92% 0.63 in WeatherDisplay:10.37 W/m2
15:04 40.5 °F 38.4 °F 29.99 in SE 6.2 mph 6.4 mph 92% 0.666 in WeatherDisplay:10.37 W/m2
15:09 40.5 °F 38.6 °F 29.99 in SSE 5.8 mph 6.3 mph 93% 0.657 in WeatherDisplay:10.37 W/m2
15:14 40.8 °F 38.9 °F 29.98 in SSE 5.8 mph 6.4 mph 93% 0.63 in WeatherDisplay:10.37 W/m2
15:19 41 °F 39.1 °F 29.98 in SSW 5.8 mph 6.2 mph 93% 0.612 in WeatherDisplay:10.37 W/m2
15:24 41.2 °F 39.3 °F 29.98 in SSE 4.6 mph 4 mph 93% 0.585 in WeatherDisplay:10.37 W/m2
15:29 41.4 °F 39.5 °F 29.99 in SE 6.2 mph 5.8 mph 93% 0.603 in WeatherDisplay:10.37 W/m2
15:34 41.5 °F 39.6 °F 29.99 in SSE 5.8 mph 6.5 mph 93% 0.621 in WeatherDisplay:10.37 W/m2
15:39 41.7 °F 39.8 °F 29.98 in SSE 4.6 mph 5.3 mph 93% 0.54 in WeatherDisplay:10.37 W/m2
15:44 41.9 °F 40 °F 29.98 in SE 4.6 mph 5 mph 93% 0.468 in WeatherDisplay:10.37 W/m2
15:49 42.1 °F 40.2 °F 29.98 in ESE 6.9 mph 3.9 mph 93% 0.387 in WeatherDisplay:10.37 W/m2
15:54 42.4 °F 40.5 °F 29.99 in SSE 4.8 mph 6.2 mph 93% 0.324 in WeatherDisplay:10.37 W/m2
15:59 42.6 °F 40.7 °F 29.99 in South 4.6 mph 4.3 mph 93% 0.279 in WeatherDisplay:10.37 W/m2
16:04 42.8 °F 40.9 °F 30.00 in South 4.6 mph 4 mph 93% 0.225 in WeatherDisplay:10.37 W/m2
16:09 43.3 °F 41.4 °F 30.00 in South 3.5 mph 2.9 mph 93% 0.207 in WeatherDisplay:10.37 W/m2
16:14 43.3 °F 41.4 °F 30.00 in South 6.9 mph 6.6 mph 93% 0.18 in WeatherDisplay:10.37 W/m2
16:19 43.5 °F 41.6 °F 30.00 in SE 4.6 mph 4.6 mph 93% 0.189 in WeatherDisplay:10.37 W/m2
16:24 43.9 °F 42.3 °F 30.00 in SSE 2.3 mph 1.9 mph 94% 0.198 in WeatherDisplay:10.37 W/m2
16:29 44.1 °F 42.5 °F 30.00 in SSW 6.2 mph 5.5 mph 94% 0.18 in WeatherDisplay:10.37 W/m2
16:34 44.1 °F 42.5 °F 30.00 in South 5.8 mph 0.3 mph 94% 0.162 in WeatherDisplay:10.37 W/m2
16:39 44.1 °F 42.5 °F 30.00 in ESE 4.2 mph 4.4 mph 94% 0.18 in WeatherDisplay:10.37 W/m2
16:44 44.2 °F 42.6 °F 30.00 in South 4.6 mph 4.3 mph 94% 0.189 in WeatherDisplay:10.37 W/m2
16:49 44.6 °F 43 °F 30.00 in South 4.6 mph 3.4 mph 94% 0.234 in WeatherDisplay:10.37 W/m2
16:54 44.6 °F 43 °F 30.00 in SSE 4.6 mph 5.3 mph 94% 0.279 in WeatherDisplay:10.37 W/m2
16:59 44.8 °F 43.2 °F 30.00 in SE 4.6 mph 1 mph 94% 0.315 in WeatherDisplay:10.37 W/m2
17:04 44.8 °F 43.2 °F 30.00 in SSW 3.5 mph 2.6 mph 94% 0.369 in WeatherDisplay:10.37 W/m2
17:09 44.8 °F 43.2 °F 30.00 in South 2.8 mph 1.6 mph 94% 0.396 in WeatherDisplay:10.37 W/m2
17:14 45 °F 43.4 °F 30.01 in SSW 3.5 mph 0.8 mph 94% 0.432 in WeatherDisplay:10.37 W/m2
17:19 45 °F 43.4 °F 30.01 in ESE 9.2 mph 8.4 mph 94% 0.45 in WeatherDisplay:10.37 W/m2
17:24 45.1 °F 43.5 °F 30.01 in ESE 3.5 mph 2.8 mph 94% 0.441 in WeatherDisplay:10.37 W/m2
17:29 45.3 °F 43.7 °F 30.01 in SSE 4.8 mph 4.7 mph 94% 0.432 in WeatherDisplay:10.37 W/m2
17:34 45.3 °F 43.7 °F 30.01 in ESE 5.5 mph 0.6 mph 94% 0.405 in WeatherDisplay:10.37 W/m2
17:39 45.5 °F 43.9 °F 30.01 in South 5.8 mph 5 mph 94% 0.378 in WeatherDisplay:10.37 W/m2
17:44 45.5 °F 43.9 °F 30.01 in SSE 1.2 mph   94% 0.369 in WeatherDisplay:10.37 W/m2
17:49 45.5 °F 43.9 °F 30.01 in SW 4.6 mph 1.9 mph 94% 0.36 in WeatherDisplay:10.37 W/m2
17:54 45.7 °F 44.1 °F 30.01 in SSE 5.5 mph 5.3 mph 94% 0.333 in WeatherDisplay:10.37 W/m2
17:59 45.9 °F 44.3 °F 30.01 in ESE 4.6 mph 3.3 mph 94% 0.324 in WeatherDisplay:10.37 W/m2
18:04 46 °F 44.4 °F 30.01 in SSW 3.5 mph 2.7 mph 94% 0.297 in WeatherDisplay:10.37 W/m2
18:09 46 °F 44.4 °F 30.01 in East 4.6 mph 3.5 mph 94% 0.297 in WeatherDisplay:10.37 W/m2
18:14 46.4 °F 44.8 °F 30.00 in SSW 4.6 mph 5.1 mph 94% 0.27 in WeatherDisplay:10.37 W/m2
18:19 46.4 °F 44.8 °F 30.00 in ESE 4.8 mph 3.9 mph 94% 0.243 in WeatherDisplay:10.37 W/m2
18:24 46.4 °F 44.8 °F 30.00 in South 4.6 mph 4.8 mph 94% 0.225 in WeatherDisplay:10.37 W/m2
18:29 46.6 °F 45 °F 30.01 in SSE 4.6 mph 4.6 mph 94% 0.207 in WeatherDisplay:10.37 W/m2
18:34 46.6 °F 45 °F 30.01 in WSW 6.2 mph 6.1 mph 94% 0.198 in WeatherDisplay:10.37 W/m2
18:39 46.8 °F 45.2 °F 30.01 in SE 3.5 mph 0.8 mph 94% 0.198 in WeatherDisplay:10.37 W/m2
18:44 46.9 °F 45.3 °F 30.01 in ESE 3.5 mph 3.3 mph 94% 0.18 in WeatherDisplay:10.37 W/m2
18:49 46.9 °F 45.3 °F 30.01 in SE 8.1 mph 7 mph 94% 0.144 in WeatherDisplay:10.37 W/m2
18:54 46.9 °F 45.3 °F 30.01 in ESE 4.6 mph 4.9 mph 94% 0.126 in WeatherDisplay:10.37 W/m2
18:59 46.9 °F 45.3 °F 30.01 in SSW 2.8 mph 0.3 mph 94% 0.09 in WeatherDisplay:10.37 W/m2
19:04 46.9 °F 45.3 °F 30.01 in Calm     94% 0.099 in WeatherDisplay:10.37 W/m2
19:09 46.9 °F 45.3 °F 30.01 in South 5.8 mph 2.3 mph 94% 0.063 in WeatherDisplay:10.37 W/m2
19:14 46.9 °F 45.3 °F 30.00 in Calm     94% 0.108 in WeatherDisplay:10.37 W/m2
19:19 46.9 °F 45.3 °F 30.00 in Calm     94% 0.153 in WeatherDisplay:10.37 W/m2
19:24 46.8 °F 45.2 °F 30.00 in Calm     94% 0.189 in WeatherDisplay:10.37 W/m2
19:29 46.8 °F 45.2 °F 30.01 in ESE 6.8 mph 5.3 mph 94% 0.234 in WeatherDisplay:10.37 W/m2
19:34 46.8 °F 45.2 °F 30.01 in SE 3.5 mph 1.2 mph 94% 0.279 in WeatherDisplay:10.37 W/m2
Cohasset, California, USA
Compliments of Weather Underground - 2 mb